Time;durP1;ratioP1;P1;durP2;ratioP2;P2;SDS_P1;SDS_P2;PMS_P1;PMS_P2;Temp;Humidity;BMP_temperature;BMP_pressure;BME280_temperature;BME280_humidity;BME280_pressure;Samples;Min_cycle;Max_cycle;Signal;HPM_P1;HPM_P2
2021/11/28 00:00:26;;;;;;;;;;;20.70;60.80;;;;;;5013969;28;1162;-69
2021/11/28 00:02:52;;;;;;;;;;;20.80;60.90;;;;;;5014579;28;1387;-69
2021/11/28 00:05:20;;;;;;;;;;;20.70;60.90;;;;;;5014401;28;1478;-69
2021/11/28 00:07:53;;;;;;;;;;;20.70;60.90;;;;;;5015152;28;1965;-69
2021/11/28 00:13:07;;;;;;;;;;;20.70;61.00;;;;;;5033981;28;1396;-69
2021/11/28 00:15:30;;;;;;;;;;;20.70;61.00;;;;;;5034500;28;1438;-68
2021/11/28 00:17:55;;;;;;;;;;;20.70;61.00;;;;;;5034830;28;1400;-69
2021/11/28 00:20:21;;;;;;;;;;;20.70;61.00;;;;;;5030634;28;1524;-69
2021/11/28 00:22:46;;;;;;;;;;;20.70;61.00;;;;;;5014149;28;1418;-69
2021/11/28 00:25:13;;;;;;;;;;;20.70;61.00;;;;;;5014720;28;1146;-69
2021/11/28 00:27:38;;;;;;;;;;;20.70;61.10;;;;;;5013379;28;1899;-68
2021/11/28 00:30:05;;;;;;;;;;;20.70;61.00;;;;;;5034250;28;1581;-68
2021/11/28 00:32:30;;;;;;;;;;;20.70;61.10;;;;;;5027710;28;1589;-70
2021/11/28 00:34:56;;;;;;;;;;;20.60;61.00;;;;;;5008357;28;1428;-69
2021/11/28 00:37:21;;;;;;;;;;;20.60;61.10;;;;;;5015151;28;1643;-69
2021/11/28 00:39:47;;;;;;;;;;;20.70;61.10;;;;;;5014783;28;1731;-69
2021/11/28 00:42:14;;;;;;;;;;;20.70;61.10;;;;;;5012949;28;1722;-69
2021/11/28 00:44:39;;;;;;;;;;;20.70;61.10;;;;;;5029994;28;1742;-69
2021/11/28 00:47:05;;;;;;;;;;;20.60;61.10;;;;;;5014409;28;1906;-69
2021/11/28 00:49:30;;;;;;;;;;;20.70;61.20;;;;;;5014476;28;1414;-69
2021/11/28 00:51:56;;;;;;;;;;;20.60;61.20;;;;;;5013502;28;1375;-69
2021/11/28 00:54:22;;;;;;;;;;;20.60;61.20;;;;;;5014283;28;1725;-69
2021/11/28 00:56:47;;;;;;;;;;;20.60;61.20;;;;;;5012917;28;1435;-69
2021/11/28 00:59:13;;;;;;;;;;;20.60;61.20;;;;;;5012526;28;1264;-69
2021/11/28 01:01:38;;;;;;;;;;;20.60;61.20;;;;;;5007427;28;1350;-69
2021/11/28 01:04:04;;;;;;;;;;;20.60;61.30;;;;;;5006117;28;1448;-70
2021/11/28 01:06:29;;;;;;;;;;;20.60;61.30;;;;;;5019240;28;1961;-70
2021/11/28 01:08:55;;;;;;;;;;;20.60;61.20;;;;;;5009330;28;1280;-70
2021/11/28 01:11:22;;;;;;;;;;;20.60;61.40;;;;;;5005438;28;1272;-70
2021/11/28 01:13:48;;;;;;;;;;;20.60;61.40;;;;;;5019555;28;1332;-70
2021/11/28 01:16:13;;;;;;;;;;;20.60;62.10;;;;;;5005201;28;1273;-70
2021/11/28 01:18:39;;;;;;;;;;;20.60;61.40;;;;;;5009286;28;1194;-70
2021/11/28 01:21:04;;;;;;;;;;;20.60;61.40;;;;;;5002655;28;1198;-70
2021/11/28 01:23:30;;;;;;;;;;;20.60;61.40;;;;;;5031972;28;1497;-70
2021/11/28 01:25:55;;;;;;;;;;;20.60;61.40;;;;;;5031912;28;1392;-70
2021/11/28 01:28:21;;;;;;;;;;;20.60;61.40;;;;;;5013726;28;1985;-70
2021/11/28 01:30:46;;;;;;;;;;;20.60;61.40;;;;;;5012041;28;1385;-70
2021/11/28 01:33:12;;;;;;;;;;;20.60;61.50;;;;;;5013589;28;1574;-70
2021/11/28 01:35:37;;;;;;;;;;;20.50;61.40;;;;;;5012394;28;1667;-70
2021/11/28 01:38:03;;;;;;;;;;;20.50;61.40;;;;;;5011930;28;1656;-70
2021/11/28 01:40:28;;;;;;;;;;;20.50;61.50;;;;;;5012091;28;1682;-70
2021/11/28 01:42:58;;;;;;;;;;;20.50;61.40;;;;;;5012193;28;1374;-70
2021/11/28 01:45:25;;;;;;;;;;;20.50;61.40;;;;;;5012210;28;1393;-70
2021/11/28 01:47:51;;;;;;;;;;;20.50;61.70;;;;;;5012320;28;1894;-70
2021/11/28 01:50:16;;;;;;;;;;;20.50;61.50;;;;;;5013225;28;1390;-70
2021/11/28 01:52:42;;;;;;;;;;;20.50;61.50;;;;;;5011344;28;1380;-70
2021/11/28 01:55:09;;;;;;;;;;;20.50;61.50;;;;;;5024299;28;1675;-69
2021/11/28 01:57:35;;;;;;;;;;;20.50;61.50;;;;;;5033032;28;1386;-69
2021/11/28 02:00:00;;;;;;;;;;;20.50;61.50;;;;;;5031572;28;1394;-69
2021/11/28 02:02:26;;;;;;;;;;;20.50;61.50;;;;;;5032129;28;1415;-68
2021/11/28 02:04:52;;;;;;;;;;;20.50;61.60;;;;;;5031681;28;1469;-68
2021/11/28 02:07:17;;;;;;;;;;;20.50;61.60;;;;;;5031299;28;1938;-69
2021/11/28 02:09:43;;;;;;;;;;;20.50;61.60;;;;;;5031447;28;1464;-69
2021/11/28 02:12:08;;;;;;;;;;;20.50;61.60;;;;;;5031820;28;1446;-70
2021/11/28 02:14:34;;;;;;;;;;;20.50;61.60;;;;;;5032860;28;1666;-70
2021/11/28 02:16:59;;;;;;;;;;;20.50;61.60;;;;;;5032300;28;1444;-70
2021/11/28 02:19:25;;;;;;;;;;;20.50;61.60;;;;;;5031644;28;1473;-70
2021/11/28 02:21:50;;;;;;;;;;;20.50;61.60;;;;;;5015653;28;1435;-70
2021/11/28 02:24:16;;;;;;;;;;;20.50;61.60;;;;;;5012660;28;1679;-69
2021/11/28 02:26:41;;;;;;;;;;;20.50;61.60;;;;;;5012338;28;1950;-70
2021/11/28 02:29:06;;;;;;;;;;;20.50;61.60;;;;;;5028226;28;1403;-70
2021/11/28 02:31:32;;;;;;;;;;;20.50;61.60;;;;;;5012155;28;1440;-70
2021/11/28 02:33:57;;;;;;;;;;;20.50;61.60;;;;;;5013136;28;1426;-70
2021/11/28 02:36:23;;;;;;;;;;;20.50;61.60;;;;;;5011056;28;1369;-70
2021/11/28 02:38:49;;;;;;;;;;;20.50;61.60;;;;;;5013261;28;1349;-70
2021/11/28 02:41:15;;;;;;;;;;;20.50;61.60;;;;;;5010846;28;1519;-70
2021/11/28 02:43:41;;;;;;;;;;;20.50;61.60;;;;;;5012567;28;1751;-71
2021/11/28 02:46:07;;;;;;;;;;;20.50;61.60;;;;;;5011466;28;1307;-70
2021/11/28 02:48:33;;;;;;;;;;;20.50;61.60;;;;;;5012608;28;1982;-70
2021/11/28 02:50:58;;;;;;;;;;;20.50;61.70;;;;;;5011848;28;1742;-70
2021/11/28 02:53:24;;;;;;;;;;;20.50;61.60;;;;;;5012079;28;1706;-70
2021/11/28 02:55:50;;;;;;;;;;;20.50;61.60;;;;;;5010600;28;1481;-70
2021/11/28 02:58:17;;;;;;;;;;;20.40;61.60;;;;;;5012728;28;1470;-70
2021/11/28 03:00:44;;;;;;;;;;;20.40;61.60;;;;;;5011994;28;1258;-70
2021/11/28 03:03:09;;;;;;;;;;;20.40;61.60;;;;;;5011657;28;1184;-69
2021/11/28 03:05:35;;;;;;;;;;;20.50;61.60;;;;;;5011729;28;1653;-71
2021/11/28 03:08:00;;;;;;;;;;;20.40;61.60;;;;;;5012442;28;1906;-71
2021/11/28 03:10:29;;;;;;;;;;;20.40;61.60;;;;;;5012267;28;1626;-71
2021/11/28 03:12:55;;;;;;;;;;;20.40;61.60;;;;;;5011760;28;1440;-71
2021/11/28 03:15:21;;;;;;;;;;;20.50;61.70;;;;;;5011970;28;1659;-70
2021/11/28 03:17:48;;;;;;;;;;;20.40;61.60;;;;;;5011264;28;1403;-69
2021/11/28 03:20:14;;;;;;;;;;;20.40;61.70;;;;;;5012308;28;1355;-69
2021/11/28 03:22:44;;;;;;;;;;;20.40;61.60;;;;;;5022887;28;1438;-69
2021/11/28 03:25:09;;;;;;;;;;;20.40;61.60;;;;;;5031617;28;1423;-69
2021/11/28 03:27:35;;;;;;;;;;;20.40;61.70;;;;;;5019993;28;1894;-69
2021/11/28 03:30:00;;;;;;;;;;;20.40;61.60;;;;;;5012341;28;1296;-69
2021/11/28 03:32:26;;;;;;;;;;;20.40;61.70;;;;;;5011227;28;1442;-69
2021/11/28 03:34:51;;;;;;;;;;;20.40;61.70;;;;;;5012046;28;1685;-69
2021/11/28 03:37:17;;;;;;;;;;;20.40;61.70;;;;;;5011333;28;1360;-69
2021/11/28 03:39:42;;;;;;;;;;;20.40;61.70;;;;;;5011865;28;1417;-69
2021/11/28 03:42:08;;;;;;;;;;;20.40;61.70;;;;;;5011239;28;1344;-69
2021/11/28 03:44:33;;;;;;;;;;;20.40;61.70;;;;;;5027240;28;1510;-69
2021/11/28 03:46:59;;;;;;;;;;;20.40;61.70;;;;;;5012465;28;1981;-69
2021/11/28 03:49:25;;;;;;;;;;;20.40;61.70;;;;;;5011786;28;1587;-69
2021/11/28 03:51:51;;;;;;;;;;;20.40;61.80;;;;;;5015087;28;1377;-69
2021/11/28 03:54:16;;;;;;;;;;;20.40;61.70;;;;;;5014124;28;1501;-69
2021/11/28 03:56:42;;;;;;;;;;;20.40;61.80;;;;;;5024732;28;1161;-70
2021/11/28 03:59:07;;;;;;;;;;;20.40;61.80;;;;;;5034750;28;1421;-69
2021/11/28 04:01:33;;;;;;;;;;;20.40;61.80;;;;;;5031200;28;1696;-69
2021/11/28 04:03:58;;;;;;;;;;;20.40;61.80;;;;;;5034784;28;1592;-69
2021/11/28 04:06:24;;;;;;;;;;;20.40;61.80;;;;;;5034513;28;1906;-69
2021/11/28 04:08:50;;;;;;;;;;;20.40;61.80;;;;;;5035005;28;1217;-69
2021/11/28 04:11:16;;;;;;;;;;;20.40;61.80;;;;;;5034284;28;1043;-69
2021/11/28 04:13:41;;;;;;;;;;;20.40;61.90;;;;;;5033598;28;1691;-69
2021/11/28 04:16:07;;;;;;;;;;;20.40;61.90;;;;;;5017543;28;1383;-69
2021/11/28 04:18:32;;;;;;;;;;;20.40;61.90;;;;;;5034834;28;1654;-69
2021/11/28 04:20:58;;;;;;;;;;;20.40;61.90;;;;;;5023696;28;1388;-69
2021/11/28 04:23:23;;;;;;;;;;;20.40;61.90;;;;;;5016265;28;1671;-69
2021/11/28 04:25:49;;;;;;;;;;;20.40;61.90;;;;;;5015393;28;1422;-69
2021/11/28 04:28:15;;;;;;;;;;;20.30;61.80;;;;;;5030649;28;2089;-69
2021/11/28 04:30:40;;;;;;;;;;;20.40;61.90;;;;;;5033354;28;1377;-69
2021/11/28 04:33:06;;;;;;;;;;;20.40;61.90;;;;;;5032383;28;1448;-69
2021/11/28 04:35:31;;;;;;;;;;;20.40;61.90;;;;;;5033373;28;1516;-68
2021/11/28 04:37:57;;;;;;;;;;;20.30;61.80;;;;;;5016691;28;1547;-68
2021/11/28 04:40:22;;;;;;;;;;;20.40;61.90;;;;;;5033309;28;1711;-67
2021/11/28 04:42:48;;;;;;;;;;;20.30;61.90;;;;;;5022330;23;3684;-69
2021/11/28 04:45:13;;;;;;;;;;;20.30;62.00;;;;;;4994883;28;969;-69
2021/11/28 04:47:39;;;;;;;;;;;20.30;62.00;;;;;;4994123;28;1914;-70
2021/11/28 04:50:05;;;;;;;;;;;20.30;61.90;;;;;;4993805;28;823;-70
2021/11/28 04:52:30;;;;;;;;;;;20.30;62.00;;;;;;4993245;28;1460;-70
2021/11/28 04:54:56;;;;;;;;;;;20.30;62.00;;;;;;4995386;28;1342;-70
2021/11/28 04:57:21;;;;;;;;;;;20.30;62.00;;;;;;4994830;28;1356;-70
2021/11/28 04:59:47;;;;;;;;;;;20.30;62.00;;;;;;4994950;28;1668;-70
2021/11/28 05:02:12;;;;;;;;;;;20.30;62.00;;;;;;4994532;28;1335;-70
2021/11/28 05:04:38;;;;;;;;;;;20.30;62.00;;;;;;4994868;28;923;-70
2021/11/28 05:07:03;;;;;;;;;;;20.30;62.00;;;;;;4993739;28;1956;-70
2021/11/28 05:09:29;;;;;;;;;;;20.30;62.00;;;;;;4993865;28;1180;-70
2021/11/28 05:11:54;;;;;;;;;;;20.30;62.00;;;;;;4993780;28;1087;-72
2021/11/28 05:14:20;;;;;;;;;;;20.30;62.00;;;;;;4994458;28;1180;-72
2021/11/28 05:16:45;;;;;;;;;;;20.30;61.90;;;;;;4993674;28;907;-71
2021/11/28 05:19:11;;;;;;;;;;;20.40;61.90;;;;;;4994763;28;860;-71
2021/11/28 05:21:36;;;;;;;;;;;20.40;61.80;;;;;;4981582;28;1402;-71
2021/11/28 05:24:02;;;;;;;;;;;20.40;61.80;;;;;;4993455;28;1200;-70
2021/11/28 05:26:27;;;;;;;;;;;20.40;61.60;;;;;;4993868;28;1947;-70
2021/11/28 05:28:53;;;;;;;;;;;20.40;61.50;;;;;;4986382;28;1170;-70
2021/11/28 05:31:18;;;;;;;;;;;20.50;61.50;;;;;;4987619;28;1108;-70
2021/11/28 05:33:44;;;;;;;;;;;20.50;61.40;;;;;;4994144;28;1365;-71
2021/11/28 05:36:10;;;;;;;;;;;20.50;61.30;;;;;;4993753;28;1420;-71
2021/11/28 05:38:36;;;;;;;;;;;20.50;61.10;;;;;;4994362;28;1604;-70
2021/11/28 05:41:01;;;;;;;;;;;20.60;61.10;;;;;;4993149;28;1275;-71
2021/11/28 05:43:26;;;;;;;;;;;20.60;61.00;;;;;;4994057;28;1442;-71
2021/11/28 05:45:52;;;;;;;;;;;20.60;61.00;;;;;;4994472;28;1256;-71
2021/11/28 05:48:18;;;;;;;;;;;20.60;61.00;;;;;;4994150;28;1918;-71
2021/11/28 05:50:43;;;;;;;;;;;20.60;60.90;;;;;;4993727;28;926;-70
2021/11/28 05:53:09;;;;;;;;;;;20.60;60.80;;;;;;4992451;28;1363;-70
2021/11/28 05:55:34;;;;;;;;;;;20.60;60.80;;;;;;4994203;28;1453;-71
2021/11/28 05:58:00;;;;;;;;;;;20.60;60.70;;;;;;4994234;28;1396;-71
2021/11/28 06:00:25;;;;;;;;;;;20.60;60.70;;;;;;4992803;28;816;-71
2021/11/28 06:02:54;;;;;;;;;;;20.60;60.70;;;;;;4991916;28;1248;-70
2021/11/28 06:05:20;;;;;;;;;;;20.70;60.70;;;;;;4992554;28;1185;-69
2021/11/28 06:07:45;;;;;;;;;;;20.60;60.60;;;;;;4993893;28;1996;-70
2021/11/28 06:10:10;;;;;;;;;;;20.60;60.60;;;;;;4993656;28;1409;-70
2021/11/28 06:12:36;;;;;;;;;;;20.60;60.50;;;;;;5007005;28;1392;-70
2021/11/28 06:15:01;;;;;;;;;;;20.70;60.60;;;;;;4993653;28;1160;-70
2021/11/28 06:17:27;;;;;;;;;;;20.70;60.60;;;;;;4992271;28;1381;-71
2021/11/28 06:19:52;;;;;;;;;;;20.70;60.60;;;;;;4993584;28;1384;-71
2021/11/28 06:22:18;;;;;;;;;;;20.70;60.60;;;;;;4992396;28;1378;-70
2021/11/28 06:24:43;;;;;;;;;;;20.70;60.50;;;;;;4993273;28;1672;-70
2021/11/28 06:27:09;;;;;;;;;;;20.70;60.50;;;;;;4993464;28;1973;-71
2021/11/28 06:29:34;;;;;;;;;;;20.70;60.40;;;;;;4993241;28;1353;-70
2021/11/28 06:32:00;;;;;;;;;;;20.70;60.50;;;;;;4991168;28;1430;-70
2021/11/28 06:34:26;;;;;;;;;;;20.70;60.40;;;;;;4993135;28;1680;-72
2021/11/28 06:36:51;;;;;;;;;;;20.70;60.40;;;;;;4992287;28;1363;-71
2021/11/28 06:39:16;;;;;;;;;;;20.70;60.40;;;;;;4993513;28;1396;-71
2021/11/28 06:41:42;;;;;;;;;;;20.80;60.40;;;;;;4992408;28;1353;-71
2021/11/28 06:44:08;;;;;;;;;;;20.70;60.30;;;;;;4993047;28;1558;-71
2021/11/28 06:46:33;;;;;;;;;;;20.70;60.30;;;;;;4993509;28;1931;-71
2021/11/28 06:48:59;;;;;;;;;;;20.70;60.30;;;;;;4992830;28;1355;-71
2021/11/28 06:51:24;;;;;;;;;;;20.80;60.20;;;;;;4991292;28;1307;-71
2021/11/28 06:53:50;;;;;;;;;;;20.80;60.10;;;;;;4991946;28;1481;-71
2021/11/28 06:56:15;;;;;;;;;;;20.90;60.10;;;;;;4993060;28;1675;-71
2021/11/28 06:58:40;;;;;;;;;;;20.80;60.00;;;;;;4992794;28;1287;-70
2021/11/28 07:01:06;;;;;;;;;;;20.90;59.90;;;;;;4992485;28;1395;-70
2021/11/28 07:03:31;;;;;;;;;;;20.90;59.80;;;;;;4992907;28;1358;-70
2021/11/28 07:05:57;;;;;;;;;;;20.90;59.80;;;;;;4993034;28;1622;-70
2021/11/28 07:08:22;;;;;;;;;;;20.90;59.80;;;;;;4992704;28;1890;-70
2021/11/28 07:10:48;;;;;;;;;;;20.90;59.70;;;;;;4992346;28;1656;-70
2021/11/28 07:13:13;;;;;;;;;;;21.00;59.80;;;;;;4992719;28;1468;-70
2021/11/28 07:15:39;;;;;;;;;;;21.00;59.70;;;;;;4991780;28;1068;-70
2021/11/28 07:18:04;;;;;;;;;;;21.00;59.70;;;;;;4991579;28;853;-70
2021/11/28 07:20:31;;;;;;;;;;;21.00;59.70;;;;;;4986174;28;1366;-70
2021/11/28 07:22:57;;;;;;;;;;;21.00;59.70;;;;;;5001746;28;1777;-70
2021/11/28 07:25:23;;;;;;;;;;;21.00;59.70;;;;;;4996956;28;805;-69
2021/11/28 07:27:48;;;;;;;;;;;21.00;59.70;;;;;;4996996;28;1891;-69
2021/11/28 07:30:14;;;;;;;;;;;21.00;59.70;;;;;;4996708;28;934;-69
2021/11/28 07:32:39;;;;;;;;;;;21.00;59.60;;;;;;4996507;28;1262;-69
2021/11/28 07:35:05;;;;;;;;;;;21.00;59.60;;;;;;4996525;28;1648;-70
2021/11/28 07:37:30;;;;;;;;;;;21.00;59.20;;;;;;4996388;28;1360;-70
2021/11/28 07:39:56;;;;;;;;;;;21.00;57.80;;;;;;4995213;28;1496;-70
2021/11/28 07:42:22;;;;;;;;;;;20.90;56.20;;;;;;4995163;28;1561;-70
2021/11/28 07:44:48;;;;;;;;;;;20.90;55.10;;;;;;5011263;28;1855;-70
2021/11/28 07:47:13;;;;;;;;;;;20.90;55.60;;;;;;4995025;28;1938;-70
2021/11/28 07:49:39;;;;;;;;;;;20.90;54.90;;;;;;4996082;28;1740;-70
2021/11/28 07:52:05;;;;;;;;;;;20.90;53.60;;;;;;4993121;28;2090;-70
2021/11/28 07:54:30;;;;;;;;;;;20.90;53.50;;;;;;4995669;28;1933;-71
2021/11/28 07:56:55;;;;;;;;;;;21.00;54.00;;;;;;4986045;28;1518;-71
2021/11/28 07:59:21;;;;;;;;;;;21.00;54.30;;;;;;5002883;28;1329;-71
2021/11/28 08:01:46;;;;;;;;;;;21.20;54.30;;;;;;4996178;28;876;-71
2021/11/28 08:04:12;;;;;;;;;;;21.30;54.80;;;;;;4987967;28;2089;-71
2021/11/28 08:06:37;;;;;;;;;;;21.40;54.30;;;;;;4984287;28;1899;-71
2021/11/28 08:09:03;;;;;;;;;;;21.50;54.20;;;;;;4995089;28;1501;-72
2021/11/28 08:11:28;;;;;;;;;;;21.60;54.00;;;;;;4986385;28;1423;-71
2021/11/28 08:13:54;;;;;;;;;;;21.80;53.90;;;;;;5010215;28;1695;-71
2021/11/28 08:16:19;;;;;;;;;;;21.90;53.90;;;;;;4995718;28;1659;-72
2021/11/28 08:18:45;;;;;;;;;;;22.00;53.70;;;;;;4994314;28;1563;-71
2021/11/28 08:21:10;;;;;;;;;;;22.00;53.60;;;;;;4994515;28;1424;-71
2021/11/28 08:23:36;;;;;;;;;;;22.20;53.60;;;;;;4994017;28;1391;-71
2021/11/28 08:26:01;;;;;;;;;;;22.30;53.60;;;;;;4995623;28;1625;-72
2021/11/28 08:28:27;;;;;;;;;;;22.30;53.50;;;;;;4994186;28;1923;-71
2021/11/28 08:30:52;;;;;;;;;;;22.30;53.40;;;;;;4994495;28;1437;-70
2021/11/28 08:33:18;;;;;;;;;;;22.40;53.40;;;;;;4995071;28;1194;-71
2021/11/28 08:35:43;;;;;;;;;;;22.50;53.40;;;;;;4994956;28;1387;-72
2021/11/28 08:38:09;;;;;;;;;;;22.50;53.30;;;;;;4994831;28;1898;-72
2021/11/28 08:40:37;;;;;;;;;;;22.60;53.30;;;;;;4994364;28;826;-71
2021/11/28 08:43:03;;;;;;;;;;;22.60;53.30;;;;;;4993056;28;1382;-72
2021/11/28 08:45:28;;;;;;;;;;;22.70;53.30;;;;;;4994834;28;1330;-72
2021/11/28 08:47:54;;;;;;;;;;;22.70;53.20;;;;;;4993406;28;1911;-72
2021/11/28 08:50:19;;;;;;;;;;;22.70;53.20;;;;;;4994668;28;1064;-72
2021/11/28 08:52:45;;;;;;;;;;;22.80;53.30;;;;;;4992428;28;1276;-72
2021/11/28 08:55:10;;;;;;;;;;;22.80;53.20;;;;;;4994470;28;1357;-72
2021/11/28 08:57:36;;;;;;;;;;;22.80;53.30;;;;;;4994125;28;1095;-72
2021/11/28 09:00:03;;;;;;;;;;;22.90;53.30;;;;;;4994592;28;1218;-72
2021/11/28 09:02:29;;;;;;;;;;;22.90;53.30;;;;;;4992275;28;1362;-71
2021/11/28 09:04:54;;;;;;;;;;;22.90;53.40;;;;;;4994708;28;1072;-72
2021/11/28 09:07:20;;;;;;;;;;;22.90;53.40;;;;;;4992723;28;1898;-72
2021/11/28 09:09:45;;;;;;;;;;;22.90;53.40;;;;;;4994530;28;1040;-72
2021/11/28 09:12:11;;;;;;;;;;;22.90;53.40;;;;;;4992170;28;1566;-72
2021/11/28 09:14:36;;;;;;;;;;;23.00;53.60;;;;;;4993930;28;1008;-72
2021/11/28 09:17:02;;;;;;;;;;;22.90;53.60;;;;;;4993663;28;1201;-72
2021/11/28 09:19:41;;;;;;;;;;;23.00;53.70;;;;;;4994207;28;978;-72
2021/11/28 09:22:09;;;;;;;;;;;23.00;53.70;;;;;;4991970;28;1382;-72
2021/11/28 09:24:37;;;;;;;;;;;23.00;53.90;;;;;;4993924;28;1198;-71
2021/11/28 09:27:07;;;;;;;;;;;23.00;54.00;;;;;;4992338;28;1962;-72
2021/11/28 09:29:36;;;;;;;;;;;23.00;54.10;;;;;;4992818;28;1270;-72
2021/11/28 09:32:01;;;;;;;;;;;22.90;54.10;;;;;;4992041;28;1244;-72
2021/11/28 09:34:27;;;;;;;;;;;22.90;54.20;;;;;;4990894;28;1291;-72
2021/11/28 09:36:53;;;;;;;;;;;22.90;54.20;;;;;;4982380;28;1072;-72
2021/11/28 09:39:18;;;;;;;;;;;22.90;54.10;;;;;;4992603;28;1128;-73
2021/11/28 09:41:44;;;;;;;;;;;22.90;54.10;;;;;;4992827;28;1151;-71
2021/11/28 09:44:09;;;;;;;;;;;22.90;54.20;;;;;;5008798;28;1321;-71
2021/11/28 09:46:35;;;;;;;;;;;22.90;54.20;;;;;;4992733;28;1903;-72
2021/11/28 09:49:02;;;;;;;;;;;22.80;54.20;;;;;;4991986;28;1283;-72
2021/11/28 09:51:27;;;;;;;;;;;22.80;54.30;;;;;;4991424;28;1434;-71
2021/11/28 09:53:55;;;;;;;;;;;22.80;54.30;;;;;;4992950;28;1360;-71
2021/11/28 09:56:20;;;;;;;;;;;22.80;54.40;;;;;;4993095;28;1368;-71
2021/11/28 09:58:46;;;;;;;;;;;22.70;54.50;;;;;;4991265;28;1080;-72
2021/11/28 10:01:11;;;;;;;;;;;22.70;54.50;;;;;;4984975;28;1851;-72
2021/11/28 10:03:37;;;;;;;;;;;22.70;54.60;;;;;;4990774;28;1280;-72
2021/11/28 10:06:02;;;;;;;;;;;22.60;54.60;;;;;;4992683;28;1115;-72
2021/11/28 10:08:27;;;;;;;;;;;22.60;54.70;;;;;;4992225;28;1962;-72
2021/11/28 10:11:08;;;;;;;;;;;22.60;54.80;;;;;;4990513;28;1280;-72
2021/11/28 10:13:34;;;;;;;;;;;22.60;54.90;;;;;;4992203;28;1357;-72
2021/11/28 10:15:59;;;;;;;;;;;22.50;55.00;;;;;;4992824;28;1359;-72
2021/11/28 10:18:25;;;;;;;;;;;22.50;55.10;;;;;;4993490;28;1355;-72
2021/11/28 10:20:50;;;;;;;;;;;22.50;55.10;;;;;;4991427;28;1373;-72
2021/11/28 10:23:16;;;;;;;;;;;22.50;55.80;;;;;;4993193;28;1291;-71
2021/11/28 10:25:41;;;;;;;;;;;22.50;55.30;;;;;;4992935;28;1294;-71
2021/11/28 10:28:11;;;;;;;;;;;22.40;55.40;;;;;;4990424;28;2174;-71
2021/11/28 10:30:38;;;;;;;;;;;22.40;55.40;;;;;;4983906;28;1190;-71
2021/11/28 10:33:04;;;;;;;;;;;22.40;55.50;;;;;;4982963;28;1261;-72
2021/11/28 10:35:30;;;;;;;;;;;22.40;55.60;;;;;;4992865;28;1310;-71
2021/11/28 10:37:55;;;;;;;;;;;22.30;55.60;;;;;;4991696;28;1072;-72
2021/11/28 10:40:22;;;;;;;;;;;22.30;55.60;;;;;;4993138;28;1103;-72
2021/11/28 10:42:50;;;;;;;;;;;22.30;55.70;;;;;;4992690;28;1294;-71
2021/11/28 10:45:16;;;;;;;;;;;22.30;55.80;;;;;;4993122;28;1142;-71
2021/11/28 10:47:51;;;;;;;;;;;22.30;55.80;;;;;;4993010;28;1961;-72
2021/11/28 10:50:20;;;;;;;;;;;22.30;55.80;;;;;;4992743;28;1381;-71
2021/11/28 10:52:50;;;;;;;;;;;22.30;55.80;;;;;;4991300;28;1277;-71
2021/11/28 10:55:16;;;;;;;;;;;22.30;55.80;;;;;;4993080;28;1068;-71
2021/11/28 10:57:42;;;;;;;;;;;22.40;55.90;;;;;;4993377;28;1087;-72
2021/11/28 11:00:08;;;;;;;;;;;22.50;55.90;;;;;;4997066;28;1056;-71
2021/11/28 11:02:34;;;;;;;;;;;22.50;55.80;;;;;;4996606;28;1408;-71
2021/11/28 11:05:00;;;;;;;;;;;22.50;55.70;;;;;;4996675;28;1281;-72
2021/11/28 11:07:26;;;;;;;;;;;22.60;55.70;;;;;;4996536;28;1902;-70
2021/11/28 11:09:55;;;;;;;;;;;22.60;55.60;;;;;;4997014;28;1376;-70
2021/11/28 11:12:36;;;;;;;;;;;22.60;55.50;;;;;;4993171;28;1836;-71
2021/11/28 11:15:02;;;;;;;;;;;22.70;55.50;;;;;;4992200;28;1848;-71
2021/11/28 11:17:28;;;;;;;;;;;22.70;55.50;;;;;;4989263;28;2059;-71
2021/11/28 11:19:54;;;;;;;;;;;22.70;55.50;;;;;;4996143;28;1239;-71
2021/11/28 11:22:30;;;;;;;;;;;22.70;55.50;;;;;;4990688;28;1358;-70
2021/11/28 11:25:00;;;;;;;;;;;22.70;55.30;;;;;;4993492;28;1329;-70
2021/11/28 11:27:26;;;;;;;;;;;22.80;55.30;;;;;;4984737;28;1903;-70
2021/11/28 11:29:53;;;;;;;;;;;22.70;55.20;;;;;;4993379;28;1243;-71
2021/11/28 11:32:20;;;;;;;;;;;22.80;55.90;;;;;;4996123;28;1353;-71
2021/11/28 11:34:51;;;;;;;;;;;22.80;55.30;;;;;;4996369;28;1174;-71
2021/11/28 11:37:18;;;;;;;;;;;22.70;55.20;;;;;;4996131;28;1336;-71
2021/11/28 11:39:45;;;;;;;;;;;22.70;55.20;;;;;;4996269;28;1321;-71
2021/11/28 11:42:12;;;;;;;;;;;22.70;55.20;;;;;;4995093;28;1389;-71
2021/11/28 11:44:37;;;;;;;;;;;22.70;55.30;;;;;;4996563;28;1303;-71
2021/11/28 11:47:03;;;;;;;;;;;22.70;55.30;;;;;;4996240;28;1980;-70
2021/11/28 11:49:29;;;;;;;;;;;22.70;55.30;;;;;;4995814;28;1283;-71
2021/11/28 11:51:54;;;;;;;;;;;22.70;55.40;;;;;;4995306;28;1290;-70
2021/11/28 11:54:24;;;;;;;;;;;22.60;55.40;;;;;;4994797;28;1482;-71
2021/11/28 11:57:12;;;;;;;;;;;22.60;55.50;;;;;;4994617;28;1319;-71
2021/11/28 11:59:56;;;;;;;;;;;22.60;55.50;;;;;;4994721;28;1336;-70
2021/11/28 12:02:42;;;;;;;;;;;22.60;55.60;;;;;;4994947;28;1378;-71
2021/11/28 12:05:23;;;;;;;;;;;22.60;55.70;;;;;;4995011;28;1267;-71
2021/11/28 12:07:49;;;;;;;;;;;22.50;55.70;;;;;;4995793;28;1899;-71
2021/11/28 12:10:24;;;;;;;;;;;22.50;55.80;;;;;;4993120;28;1320;-72
2021/11/28 12:12:50;;;;;;;;;;;22.50;55.80;;;;;;4995384;28;1343;-71
2021/11/28 12:15:20;;;;;;;;;;;22.50;55.90;;;;;;4995456;28;1273;-71
2021/11/28 12:17:46;;;;;;;;;;;22.50;55.90;;;;;;4994260;28;1279;-70
2021/11/28 12:20:13;;;;;;;;;;;22.50;56.00;;;;;;4992527;28;1260;-70
2021/11/28 12:22:44;;;;;;;;;;;22.40;56.00;;;;;;4985939;28;1365;-71
2021/11/28 12:25:29;;;;;;;;;;;22.50;56.00;;;;;;4995250;28;1338;-71
2021/11/28 12:27:54;;;;;;;;;;;22.50;56.00;;;;;;4995339;28;1910;-71
2021/11/28 12:30:32;;;;;;;;;;;22.50;55.90;;;;;;4994494;28;1305;-69
2021/11/28 12:32:58;;;;;;;;;;;22.50;55.90;;;;;;4994455;28;1338;-71
2021/11/28 12:35:35;;;;;;;;;;;22.50;55.90;;;;;;4995129;28;1200;-72
2021/11/28 12:38:01;;;;;;;;;;;22.60;55.90;;;;;;4995424;28;1299;-73
2021/11/28 12:40:28;;;;;;;;;;;22.60;55.80;;;;;;4993575;28;1280;-71
2021/11/28 12:42:53;;;;;;;;;;;22.60;55.70;;;;;;4993084;28;1277;-72
2021/11/28 12:45:45;;;;;;;;;;;22.70;55.80;;;;;;4995465;28;1368;-72
2021/11/28 12:48:16;;;;;;;;;;;22.70;55.70;;;;;;4993654;28;1910;-72
2021/11/28 12:50:48;;;;;;;;;;;22.70;55.70;;;;;;4982854;28;1120;-74
2021/11/28 12:53:14;;;;;;;;;;;22.70;55.70;;;;;;4993388;28;1395;-74
2021/11/28 12:55:39;;;;;;;;;;;22.70;55.60;;;;;;4992348;28;1314;-70
2021/11/28 12:58:05;;;;;;;;;;;22.70;55.60;;;;;;4993573;28;1048;-69
2021/11/28 13:00:47;;;;;;;;;;;22.70;55.60;;;;;;4993580;28;1084;-71
2021/11/28 13:03:13;;;;;;;;;;;22.70;55.60;;;;;;4993594;28;1374;-68
2021/11/28 13:05:39;;;;;;;;;;;22.70;55.60;;;;;;4993154;28;1519;-70
2021/11/28 13:08:05;;;;;;;;;;;22.70;55.60;;;;;;4993710;28;1914;-72
2021/11/28 13:10:49;;;;;;;;;;;22.70;55.70;;;;;;4993604;28;1320;-71
2021/11/28 13:13:15;;;;;;;;;;;22.60;55.70;;;;;;4992016;28;1288;-71
2021/11/28 13:15:41;;;;;;;;;;;22.70;55.80;;;;;;4993327;28;1151;-72
2021/11/28 13:18:07;;;;;;;;;;;22.60;55.80;;;;;;4991926;28;1291;-73
2021/11/28 13:20:33;;;;;;;;;;;22.60;55.80;;;;;;4994282;28;1387;-74
2021/11/28 13:22:59;;;;;;;;;;;22.60;55.80;;;;;;4991620;28;1268;-73
2021/11/28 13:25:29;;;;;;;;;;;22.60;55.90;;;;;;4993748;28;1258;-73
2021/11/28 13:28:05;;;;;;;;;;;22.50;56.20;;;;;;4992355;28;1965;-72
2021/11/28 13:30:37;;;;;;;;;;;22.60;56.00;;;;;;4993749;28;1047;-72
2021/11/28 13:33:04;;;;;;;;;;;22.50;56.00;;;;;;4992084;28;1358;-72
2021/11/28 13:35:29;;;;;;;;;;;22.50;56.10;;;;;;4994063;28;1299;-72
2021/11/28 13:38:13;;;;;;;;;;;22.50;56.10;;;;;;4994295;28;1308;-72
2021/11/28 13:40:39;;;;;;;;;;;22.50;56.20;;;;;;4992765;28;1280;-73
2021/11/28 13:43:04;;;;;;;;;;;22.50;56.20;;;;;;4993046;28;1378;-73
2021/11/28 13:45:30;;;;;;;;;;;22.40;56.20;;;;;;4993075;28;1850;-71
2021/11/28 13:47:55;;;;;;;;;;;22.40;56.20;;;;;;4992632;28;1910;-73
2021/11/28 13:50:21;;;;;;;;;;;22.40;56.60;;;;;;4993526;28;1156;-73
2021/11/28 13:52:46;;;;;;;;;;;22.40;56.40;;;;;;4989671;28;2232;-70
2021/11/28 13:55:12;;;;;;;;;;;22.40;56.50;;;;;;4984620;28;1212;-68
2021/11/28 13:57:38;;;;;;;;;;;22.40;56.50;;;;;;4980765;28;1389;-69
2021/11/28 14:00:05;;;;;;;;;;;22.40;56.50;;;;;;4992778;28;1068;-69
2021/11/28 14:02:39;;;;;;;;;;;22.30;56.50;;;;;;4991538;28;1311;-70
2021/11/28 14:05:08;;;;;;;;;;;22.30;56.50;;;;;;4992280;28;1416;-70
2021/11/28 14:07:41;;;;;;;;;;;22.30;56.60;;;;;;4978316;28;1984;-69
2021/11/28 14:10:06;;;;;;;;;;;22.30;56.60;;;;;;4991017;28;1100;-70
2021/11/28 14:12:33;;;;;;;;;;;22.30;56.70;;;;;;4991357;28;1268;-70
2021/11/28 14:14:59;;;;;;;;;;;22.20;56.70;;;;;;4991963;28;1051;-70
2021/11/28 14:17:25;;;;;;;;;;;22.20;56.70;;;;;;4992481;28;1095;-71
2021/11/28 14:19:51;;;;;;;;;;;22.20;56.70;;;;;;4992090;28;1079;-70
2021/11/28 14:22:23;;;;;;;;;;;22.20;56.80;;;;;;4978165;28;1363;-68
2021/11/28 14:24:50;;;;;;;;;;;22.20;56.80;;;;;;4992002;28;1391;-69
2021/11/28 14:27:19;;;;;;;;;;;22.20;56.90;;;;;;4991168;28;1926;-73
2021/11/28 14:29:44;;;;;;;;;;;22.20;56.90;;;;;;4992310;28;1092;-72